sensor_id;sensor_type;location;lat;lon;timestamp;P1;durP1;ratioP1;P2;durP2;ratioP2
64938;SDS011;51453;47.738;7.420;2023-02-01T00:00:46;13.23;;;8.63;;
64938;SDS011;51453;47.738;7.420;2023-02-01T00:03:11;17.00;;;9.07;;
64938;SDS011;51453;47.738;7.420;2023-02-01T00:05:38;15.38;;;8.85;;
64938;SDS011;51453;47.738;7.420;2023-02-01T00:08:03;15.82;;;8.80;;
64938;SDS011;51453;47.738;7.420;2023-02-01T00:10:29;16.23;;;9.27;;
64938;SDS011;51453;47.738;7.420;2023-02-01T00:12:55;14.98;;;8.98;;
64938;SDS011;51453;47.738;7.420;2023-02-01T00:15:20;14.57;;;9.35;;
64938;SDS011;51453;47.738;7.420;2023-02-01T00:17:48;13.57;;;8.65;;
64938;SDS011;51453;47.738;7.420;2023-02-01T00:20:17;15.77;;;9.30;;
64938;SDS011;51453;47.738;7.420;2023-02-01T00:22:43;13.52;;;8.57;;
64938;SDS011;51453;47.738;7.420;2023-02-01T00:25:09;23.48;;;11.30;;
64938;SDS011;51453;47.738;7.420;2023-02-01T00:27:34;15.30;;;9.23;;
64938;SDS011;51453;47.738;7.420;2023-02-01T00:30:00;21.02;;;10.65;;
64938;SDS011;51453;47.738;7.420;2023-02-01T00:32:25;17.42;;;10.73;;
64938;SDS011;51453;47.738;7.420;2023-02-01T00:34:51;16.73;;;10.48;;
64938;SDS011;51453;47.738;7.420;2023-02-01T00:37:17;15.77;;;10.25;;
64938;SDS011;51453;47.738;7.420;2023-02-01T00:39:42;21.40;;;11.48;;
64938;SDS011;51453;47.738;7.420;2023-02-01T00:42:08;16.38;;;10.55;;
64938;SDS011;51453;47.738;7.420;2023-02-01T00:44:34;16.33;;;10.07;;
64938;SDS011;51453;47.738;7.420;2023-02-01T00:47:00;20.85;;;11.10;;
64938;SDS011;51453;47.738;7.420;2023-02-01T00:49:26;23.17;;;11.68;;
64938;SDS011;51453;47.738;7.420;2023-02-01T00:51:53;19.42;;;10.95;;
64938;SDS011;51453;47.738;7.420;2023-02-01T00:54:19;17.75;;;10.32;;
64938;SDS011;51453;47.738;7.420;2023-02-01T00:56:44;19.27;;;11.68;;
64938;SDS011;51453;47.738;7.420;2023-02-01T00:59:10;15.25;;;10.15;;
64938;SDS011;51453;47.738;7.420;2023-02-01T01:01:37;22.65;;;10.60;;
64938;SDS011;51453;47.738;7.420;2023-02-01T01:04:03;17.83;;;10.25;;
64938;SDS011;51453;47.738;7.420;2023-02-01T01:06:30;17.58;;;10.00;;
64938;SDS011;51453;47.738;7.420;2023-02-01T01:08:57;27.45;;;11.98;;
64938;SDS011;51453;47.738;7.420;2023-02-01T01:11:25;17.20;;;10.65;;
64938;SDS011;51453;47.738;7.420;2023-02-01T01:13:53;17.73;;;9.93;;
64938;SDS011;51453;47.738;7.420;2023-02-01T01:16:20;18.80;;;10.73;;
64938;SDS011;51453;47.738;7.420;2023-02-01T01:18:47;17.75;;;10.32;;
64938;SDS011;51453;47.738;7.420;2023-02-01T01:21:14;17.58;;;9.27;;
64938;SDS011;51453;47.738;7.420;2023-02-01T01:23:41;22.30;;;11.18;;
64938;SDS011;51453;47.738;7.420;2023-02-01T01:26:08;20.90;;;11.05;;
64938;SDS011;51453;47.738;7.420;2023-02-01T01:28:37;15.57;;;10.00;;
64938;SDS011;51453;47.738;7.420;2023-02-01T01:31:03;19.95;;;10.70;;
64938;SDS011;51453;47.738;7.420;2023-02-01T01:33:33;17.50;;;10.13;;
64938;SDS011;51453;47.738;7.420;2023-02-01T01:35:59;17.88;;;10.05;;
64938;SDS011;51453;47.738;7.420;2023-02-01T01:38:24;20.75;;;10.52;;
64938;SDS011;51453;47.738;7.420;2023-02-01T01:40:50;17.20;;;9.75;;
64938;SDS011;51453;47.738;7.420;2023-02-01T01:43:16;16.20;;;9.25;;
64938;SDS011;51453;47.738;7.420;2023-02-01T01:45:46;16.23;;;8.88;;
64938;SDS011;51453;47.738;7.420;2023-02-01T01:48:13;17.75;;;9.60;;
64938;SDS011;51453;47.738;7.420;2023-02-01T01:50:55;23.92;;;10.82;;
64938;SDS011;51453;47.738;7.420;2023-02-01T01:53:35;19.90;;;9.00;;
64938;SDS011;51453;47.738;7.420;2023-02-01T01:56:05;18.70;;;9.80;;
64938;SDS011;51453;47.738;7.420;2023-02-01T01:58:31;20.60;;;9.77;;
64938;SDS011;51453;47.738;7.420;2023-02-01T02:00:59;19.33;;;9.88;;
64938;SDS011;51453;47.738;7.420;2023-02-01T02:03:58;15.65;;;9.43;;
64938;SDS011;51453;47.738;7.420;2023-02-01T02:08:52;20.25;;;10.27;;
64938;SDS011;51453;47.738;7.420;2023-02-01T02:11:18;18.13;;;9.65;;
64938;SDS011;51453;47.738;7.420;2023-02-01T02:13:46;13.95;;;9.02;;
64938;SDS011;51453;47.738;7.420;2023-02-01T02:16:36;15.27;;;8.75;;
64938;SDS011;51453;47.738;7.420;2023-02-01T02:40:49;17.98;;;9.85;;
64938;SDS011;51453;47.738;7.420;2023-02-01T02:43:27;17.25;;;9.85;;
64938;SDS011;51453;47.738;7.420;2023-02-01T02:46:39;15.75;;;9.60;;
64938;SDS011;51453;47.738;7.420;2023-02-01T02:49:34;17.35;;;10.00;;
64938;SDS011;51453;47.738;7.420;2023-02-01T02:52:10;19.08;;;10.35;;
64938;SDS011;51453;47.738;7.420;2023-02-01T02:54:59;19.15;;;10.35;;
64938;SDS011;51453;47.738;7.420;2023-02-01T02:57:30;18.27;;;10.10;;
64938;SDS011;51453;47.738;7.420;2023-02-01T03:00:20;18.58;;;10.07;;
64938;SDS011;51453;47.738;7.420;2023-02-01T03:03:08;16.80;;;9.95;;
64938;SDS011;51453;47.738;7.420;2023-02-01T03:05:52;17.13;;;9.93;;
64938;SDS011;51453;47.738;7.420;2023-02-01T03:16:00;18.15;;;11.32;;
64938;SDS011;51453;47.738;7.420;2023-02-01T03:18:42;20.92;;;11.52;;
64938;SDS011;51453;47.738;7.420;2023-02-01T03:21:23;20.98;;;11.10;;
64938;SDS011;51453;47.738;7.420;2023-02-01T03:23:54;21.35;;;11.68;;
64938;SDS011;51453;47.738;7.420;2023-02-01T03:26:24;21.23;;;11.70;;
64938;SDS011;51453;47.738;7.420;2023-02-01T03:29:05;20.23;;;11.32;;
64938;SDS011;51453;47.738;7.420;2023-02-01T03:31:37;20.95;;;12.05;;
64938;SDS011;51453;47.738;7.420;2023-02-01T03:34:03;20.05;;;11.48;;
64938;SDS011;51453;47.738;7.420;2023-02-01T03:41:37;17.85;;;11.48;;
64938;SDS011;51453;47.738;7.420;2023-02-01T03:44:31;18.33;;;10.98;;
64938;SDS011;51453;47.738;7.420;2023-02-01T03:49:34;21.63;;;10.13;;
64938;SDS011;51453;47.738;7.420;2023-02-01T03:52:03;19.58;;;9.35;;
64938;SDS011;51453;47.738;7.420;2023-02-01T03:54:31;16.67;;;9.98;;
64938;SDS011;51453;47.738;7.420;2023-02-01T03:56:58;15.38;;;9.30;;
64938;SDS011;51453;47.738;7.420;2023-02-01T03:59:30;19.40;;;10.23;;
64938;SDS011;51453;47.738;7.420;2023-02-01T04:01:55;18.27;;;9.55;;
64938;SDS011;51453;47.738;7.420;2023-02-01T04:04:21;19.33;;;9.35;;
64938;SDS011;51453;47.738;7.420;2023-02-01T04:06:47;17.20;;;9.32;;
64938;SDS011;51453;47.738;7.420;2023-02-01T04:09:16;17.13;;;9.02;;
64938;SDS011;51453;47.738;7.420;2023-02-01T04:11:42;17.77;;;9.15;;
64938;SDS011;51453;47.738;7.420;2023-02-01T04:14:08;17.77;;;9.00;;
64938;SDS011;51453;47.738;7.420;2023-02-01T04:16:33;20.42;;;9.80;;
64938;SDS011;51453;47.738;7.420;2023-02-01T04:18:59;18.42;;;9.70;;
64938;SDS011;51453;47.738;7.420;2023-02-01T04:21:25;14.95;;;9.23;;
64938;SDS011;51453;47.738;7.420;2023-02-01T04:23:51;16.80;;;9.48;;
64938;SDS011;51453;47.738;7.420;2023-02-01T04:26:18;19.15;;;9.95;;
64938;SDS011;51453;47.738;7.420;2023-02-01T04:28:44;13.32;;;7.95;;
64938;SDS011;51453;47.738;7.420;2023-02-01T04:31:12;14.98;;;7.95;;
64938;SDS011;51453;47.738;7.420;2023-02-01T04:33:38;15.85;;;7.43;;
64938;SDS011;51453;47.738;7.420;2023-02-01T04:36:04;14.60;;;7.53;;
64938;SDS011;51453;47.738;7.420;2023-02-01T04:38:30;16.00;;;7.53;;
64938;SDS011;51453;47.738;7.420;2023-02-01T04:40:57;14.40;;;6.97;;
64938;SDS011;51453;47.738;7.420;2023-02-01T04:43:23;13.30;;;6.63;;
64938;SDS011;51453;47.738;7.420;2023-02-01T04:45:49;15.27;;;6.88;;
64938;SDS011;51453;47.738;7.420;2023-02-01T04:48:16;13.30;;;7.13;;
64938;SDS011;51453;47.738;7.420;2023-02-01T04:50:43;15.88;;;7.05;;
64938;SDS011;51453;47.738;7.420;2023-02-01T04:53:12;13.00;;;7.00;;
64938;SDS011;51453;47.738;7.420;2023-02-01T04:55:41;14.48;;;6.95;;
64938;SDS011;51453;47.738;7.420;2023-02-01T04:58:07;16.33;;;7.50;;
64938;SDS011;51453;47.738;7.420;2023-02-01T05:00:32;15.88;;;7.43;;
64938;SDS011;51453;47.738;7.420;2023-02-01T05:02:58;15.30;;;7.55;;
64938;SDS011;51453;47.738;7.420;2023-02-01T05:05:24;14.32;;;7.10;;
64938;SDS011;51453;47.738;7.420;2023-02-01T05:07:50;13.52;;;7.05;;
64938;SDS011;51453;47.738;7.420;2023-02-01T05:10:16;15.43;;;6.93;;
64938;SDS011;51453;47.738;7.420;2023-02-01T05:12:42;13.43;;;6.95;;
64938;SDS011;51453;47.738;7.420;2023-02-01T05:15:30;9.57;;;6.57;;
64938;SDS011;51453;47.738;7.420;2023-02-01T05:17:56;15.30;;;6.95;;
64938;SDS011;51453;47.738;7.420;2023-02-01T05:20:22;11.40;;;6.20;;
64938;SDS011;51453;47.738;7.420;2023-02-01T05:22:47;10.45;;;5.75;;
64938;SDS011;51453;47.738;7.420;2023-02-01T05:25:13;13.55;;;5.80;;
64938;SDS011;51453;47.738;7.420;2023-02-01T05:27:39;12.55;;;5.93;;
64938;SDS011;51453;47.738;7.420;2023-02-01T05:30:05;12.75;;;6.43;;
64938;SDS011;51453;47.738;7.420;2023-02-01T05:32:31;9.68;;;5.43;;
64938;SDS011;51453;47.738;7.420;2023-02-01T05:34:57;9.73;;;5.47;;
64938;SDS011;51453;47.738;7.420;2023-02-01T05:37:23;10.07;;;5.78;;
64938;SDS011;51453;47.738;7.420;2023-02-01T05:39:48;9.00;;;5.38;;
64938;SDS011;51453;47.738;7.420;2023-02-01T05:42:14;13.30;;;5.85;;
64938;SDS011;51453;47.738;7.420;2023-02-01T05:44:40;11.98;;;5.80;;
64938;SDS011;51453;47.738;7.420;2023-02-01T05:47:05;11.55;;;5.57;;
64938;SDS011;51453;47.738;7.420;2023-02-01T05:49:31;12.75;;;5.05;;
64938;SDS011;51453;47.738;7.420;2023-02-01T05:51:57;8.32;;;5.10;;
64938;SDS011;51453;47.738;7.420;2023-02-01T05:54:22;11.43;;;5.40;;
64938;SDS011;51453;47.738;7.420;2023-02-01T05:56:48;15.02;;;5.35;;
64938;SDS011;51453;47.738;7.420;2023-02-01T05:59:14;12.00;;;5.10;;
64938;SDS011;51453;47.738;7.420;2023-02-01T06:01:39;9.27;;;4.95;;
64938;SDS011;51453;47.738;7.420;2023-02-01T06:04:05;11.20;;;4.78;;
64938;SDS011;51453;47.738;7.420;2023-02-01T06:06:31;11.90;;;5.72;;
64938;SDS011;51453;47.738;7.420;2023-02-01T06:08:56;11.95;;;4.80;;
64938;SDS011;51453;47.738;7.420;2023-02-01T06:11:22;10.98;;;5.22;;
64938;SDS011;51453;47.738;7.420;2023-02-01T06:13:48;11.95;;;4.97;;
64938;SDS011;51453;47.738;7.420;2023-02-01T06:16:13;11.25;;;5.13;;
64938;SDS011;51453;47.738;7.420;2023-02-01T06:18:40;10.68;;;5.35;;
64938;SDS011;51453;47.738;7.420;2023-02-01T06:21:06;11.55;;;5.18;;
64938;SDS011;51453;47.738;7.420;2023-02-01T06:23:32;8.98;;;4.53;;
64938;SDS011;51453;47.738;7.420;2023-02-01T06:26:05;7.95;;;4.40;;
64938;SDS011;51453;47.738;7.420;2023-02-01T06:28:33;9.98;;;4.57;;
64938;SDS011;51453;47.738;7.420;2023-02-01T06:31:03;11.60;;;4.97;;
64938;SDS011;51453;47.738;7.420;2023-02-01T06:33:31;9.20;;;4.93;;
64938;SDS011;51453;47.738;7.420;2023-02-01T06:35:58;9.18;;;4.50;;
64938;SDS011;51453;47.738;7.420;2023-02-01T06:38:25;14.07;;;4.70;;
64938;SDS011;51453;47.738;7.420;2023-02-01T06:40:54;11.10;;;4.78;;
64938;SDS011;51453;47.738;7.420;2023-02-01T06:43:22;9.63;;;4.60;;
64938;SDS011;51453;47.738;7.420;2023-02-01T06:45:49;7.95;;;4.38;;
64938;SDS011;51453;47.738;7.420;2023-02-01T06:48:15;8.25;;;4.32;;
64938;SDS011;51453;47.738;7.420;2023-02-01T06:50:40;10.38;;;4.70;;
64938;SDS011;51453;47.738;7.420;2023-02-01T06:53:06;8.20;;;4.32;;
64938;SDS011;51453;47.738;7.420;2023-02-01T06:55:32;11.18;;;4.78;;
64938;SDS011;51453;47.738;7.420;2023-02-01T06:57:58;7.80;;;4.30;;
64938;SDS011;51453;47.738;7.420;2023-02-01T07:00:24;9.07;;;4.57;;
64938;SDS011;51453;47.738;7.420;2023-02-01T07:02:50;7.15;;;4.53;;
64938;SDS011;51453;47.738;7.420;2023-02-01T07:05:16;8.68;;;4.18;;
64938;SDS011;51453;47.738;7.420;2023-02-01T07:07:42;6.35;;;4.07;;
64938;SDS011;51453;47.738;7.420;2023-02-01T07:10:08;9.57;;;4.50;;
64938;SDS011;51453;47.738;7.420;2023-02-01T07:12:35;10.30;;;4.10;;
64938;SDS011;51453;47.738;7.420;2023-02-01T07:15:00;8.43;;;4.25;;
64938;SDS011;51453;47.738;7.420;2023-02-01T07:17:27;10.68;;;4.57;;
64938;SDS011;51453;47.738;7.420;2023-02-01T07:19:56;9.07;;;3.83;;
64938;SDS011;51453;47.738;7.420;2023-02-01T07:22:24;8.80;;;3.95;;
64938;SDS011;51453;47.738;7.420;2023-02-01T07:24:50;9.05;;;4.25;;
64938;SDS011;51453;47.738;7.420;2023-02-01T07:27:16;8.52;;;4.20;;
64938;SDS011;51453;47.738;7.420;2023-02-01T07:29:41;10.82;;;4.40;;
64938;SDS011;51453;47.738;7.420;2023-02-01T07:32:07;9.13;;;4.22;;
64938;SDS011;51453;47.738;7.420;2023-02-01T07:34:33;6.72;;;3.63;;
64938;SDS011;51453;47.738;7.420;2023-02-01T07:36:59;6.25;;;3.60;;
64938;SDS011;51453;47.738;7.420;2023-02-01T07:39:25;8.45;;;4.05;;
64938;SDS011;51453;47.738;7.420;2023-02-01T07:41:53;8.27;;;4.30;;
64938;SDS011;51453;47.738;7.420;2023-02-01T07:44:19;6.00;;;3.38;;
64938;SDS011;51453;47.738;7.420;2023-02-01T07:46:47;11.10;;;4.35;;
64938;SDS011;51453;47.738;7.420;2023-02-01T07:49:13;6.57;;;4.05;;
64938;SDS011;51453;47.738;7.420;2023-02-01T07:51:39;6.20;;;3.92;;
64938;SDS011;51453;47.738;7.420;2023-02-01T07:54:05;10.10;;;3.95;;
64938;SDS011;51453;47.738;7.420;2023-02-01T07:56:31;7.47;;;3.85;;
64938;SDS011;51453;47.738;7.420;2023-02-01T07:58:56;7.57;;;3.65;;
64938;SDS011;51453;47.738;7.420;2023-02-01T08:01:25;6.40;;;3.95;;
64938;SDS011;51453;47.738;7.420;2023-02-01T08:03:53;7.57;;;3.85;;
64938;SDS011;51453;47.738;7.420;2023-02-01T08:06:20;21.58;;;6.35;;
64938;SDS011;51453;47.738;7.420;2023-02-01T08:08:46;6.97;;;3.65;;
64938;SDS011;51453;47.738;7.420;2023-02-01T08:11:13;6.22;;;3.33;;
64938;SDS011;51453;47.738;7.420;2023-02-01T08:13:39;5.28;;;2.97;;
64938;SDS011;51453;47.738;7.420;2023-02-01T08:16:06;6.53;;;3.63;;
64938;SDS011;51453;47.738;7.420;2023-02-01T08:18:34;4.90;;;3.00;;
64938;SDS011;51453;47.738;7.420;2023-02-01T08:21:07;4.90;;;2.83;;
64938;SDS011;51453;47.738;7.420;2023-02-01T08:23:34;4.95;;;2.85;;
64938;SDS011;51453;47.738;7.420;2023-02-01T08:26:07;4.15;;;2.58;;
64938;SDS011;51453;47.738;7.420;2023-02-01T08:28:37;5.82;;;2.90;;
64938;SDS011;51453;47.738;7.420;2023-02-01T08:31:08;7.10;;;2.50;;
64938;SDS011;51453;47.738;7.420;2023-02-01T08:33:35;3.08;;;2.40;;
64938;SDS011;51453;47.738;7.420;2023-02-01T08:36:03;4.72;;;2.70;;
64938;SDS011;51453;47.738;7.420;2023-02-01T08:38:29;3.78;;;2.33;;
64938;SDS011;51453;47.738;7.420;2023-02-01T08:40:55;5.20;;;2.30;;
64938;SDS011;51453;47.738;7.420;2023-02-01T08:43:21;5.28;;;2.50;;
64938;SDS011;51453;47.738;7.420;2023-02-01T08:45:47;5.40;;;2.97;;
64938;SDS011;51453;47.738;7.420;2023-02-01T08:48:12;3.88;;;2.90;;
64938;SDS011;51453;47.738;7.420;2023-02-01T08:50:38;7.00;;;3.42;;
64938;SDS011;51453;47.738;7.420;2023-02-01T08:53:03;6.85;;;2.92;;
64938;SDS011;51453;47.738;7.420;2023-02-01T08:55:29;7.03;;;2.90;;
64938;SDS011;51453;47.738;7.420;2023-02-01T08:57:55;9.23;;;3.50;;
64938;SDS011;51453;47.738;7.420;2023-02-01T09:00:21;6.85;;;3.08;;
64938;SDS011;51453;47.738;7.420;2023-02-01T09:02:47;7.10;;;3.45;;
64938;SDS011;51453;47.738;7.420;2023-02-01T09:05:12;6.50;;;3.30;;
64938;SDS011;51453;47.738;7.420;2023-02-01T09:07:41;6.57;;;3.15;;
64938;SDS011;51453;47.738;7.420;2023-02-01T09:10:07;6.85;;;3.25;;
64938;SDS011;51453;47.738;7.420;2023-02-01T09:12:34;6.75;;;3.10;;
64938;SDS011;51453;47.738;7.420;2023-02-01T09:15:00;7.68;;;3.08;;
64938;SDS011;51453;47.738;7.420;2023-02-01T09:17:27;6.10;;;3.10;;
64938;SDS011;51453;47.738;7.420;2023-02-01T09:19:53;5.60;;;3.15;;
64938;SDS011;51453;47.738;7.420;2023-02-01T09:22:19;8.38;;;3.10;;
64938;SDS011;51453;47.738;7.420;2023-02-01T09:24:45;7.10;;;3.05;;
64938;SDS011;51453;47.738;7.420;2023-02-01T09:27:11;6.30;;;3.03;;
64938;SDS011;51453;47.738;7.420;2023-02-01T09:29:36;7.90;;;3.25;;
64938;SDS011;51453;47.738;7.420;2023-02-01T09:32:02;7.82;;;3.15;;
64938;SDS011;51453;47.738;7.420;2023-02-01T09:34:28;7.65;;;3.22;;
64938;SDS011;51453;47.738;7.420;2023-02-01T09:36:54;6.57;;;3.00;;
64938;SDS011;51453;47.738;7.420;2023-02-01T09:39:20;10.00;;;3.67;;
64938;SDS011;51453;47.738;7.420;2023-02-01T09:41:48;8.98;;;3.53;;
64938;SDS011;51453;47.738;7.420;2023-02-01T09:44:37;10.13;;;3.25;;
64938;SDS011;51453;47.738;7.420;2023-02-01T09:47:13;7.90;;;3.08;;
64938;SDS011;51453;47.738;7.420;2023-02-01T09:52:53;11.30;;;4.50;;
64938;SDS011;51453;47.738;7.420;2023-02-01T09:55:32;10.43;;;3.25;;
64938;SDS011;51453;47.738;7.420;2023-02-01T10:00:39;6.32;;;2.85;;
64938;SDS011;51453;47.738;7.420;2023-02-01T10:03:08;7.60;;;3.00;;
64938;SDS011;51453;47.738;7.420;2023-02-01T10:08:11;6.53;;;3.10;;
64938;SDS011;51453;47.738;7.420;2023-02-01T10:10:51;7.43;;;2.80;;
64938;SDS011;51453;47.738;7.420;2023-02-01T10:24:22;14.27;;;3.08;;
64938;SDS011;51453;47.738;7.420;2023-02-01T10:26:51;6.95;;;2.95;;
64938;SDS011;51453;47.738;7.420;2023-02-01T10:29:31;12.45;;;3.08;;
64938;SDS011;51453;47.738;7.420;2023-02-01T10:32:02;9.18;;;3.13;;
64938;SDS011;51453;47.738;7.420;2023-02-01T10:34:34;13.65;;;3.63;;
64938;SDS011;51453;47.738;7.420;2023-02-01T10:37:07;10.15;;;3.70;;
64938;SDS011;51453;47.738;7.420;2023-02-01T10:39:53;12.27;;;3.53;;
64938;SDS011;51453;47.738;7.420;2023-02-01T10:42:25;11.85;;;3.40;;
64938;SDS011;51453;47.738;7.420;2023-02-01T10:44:53;5.90;;;2.60;;
64938;SDS011;51453;47.738;7.420;2023-02-01T10:47:24;11.70;;;3.35;;
64938;SDS011;51453;47.738;7.420;2023-02-01T10:49:52;6.45;;;2.95;;
64938;SDS011;51453;47.738;7.420;2023-02-01T10:52:54;8.25;;;3.30;;
64938;SDS011;51453;47.738;7.420;2023-02-01T10:58:01;14.48;;;3.58;;
64938;SDS011;51453;47.738;7.420;2023-02-01T11:00:56;12.50;;;3.83;;
64938;SDS011;51453;47.738;7.420;2023-02-01T11:11:52;9.93;;;3.70;;
64938;SDS011;51453;47.738;7.420;2023-02-01T11:14:34;7.50;;;3.30;;
64938;SDS011;51453;47.738;7.420;2023-02-01T11:17:17;10.48;;;3.80;;
64938;SDS011;51453;47.738;7.420;2023-02-01T11:19:57;10.13;;;3.78;;
64938;SDS011;51453;47.738;7.420;2023-02-01T11:22:37;12.30;;;3.88;;
64938;SDS011;51453;47.738;7.420;2023-02-01T11:25:10;11.88;;;3.38;;
64938;SDS011;51453;47.738;7.420;2023-02-01T11:27:39;14.13;;;3.85;;
64938;SDS011;51453;47.738;7.420;2023-02-01T11:30:05;11.10;;;3.70;;
64938;SDS011;51453;47.738;7.420;2023-02-01T11:32:31;10.32;;;3.67;;
64938;SDS011;51453;47.738;7.420;2023-02-01T11:34:59;13.30;;;4.10;;
64938;SDS011;51453;47.738;7.420;2023-02-01T11:37:29;12.70;;;3.70;;
64938;SDS011;51453;47.738;7.420;2023-02-01T11:39:59;9.25;;;3.55;;
64938;SDS011;51453;47.738;7.420;2023-02-01T11:42:26;11.18;;;3.85;;
64938;SDS011;51453;47.738;7.420;2023-02-01T11:47:42;12.60;;;3.97;;
64938;SDS011;51453;47.738;7.420;2023-02-01T11:50:15;14.38;;;6.00;;
64938;SDS011;51453;47.738;7.420;2023-02-01T12:12:06;12.18;;;3.72;;
64938;SDS011;51453;47.738;7.420;2023-02-01T12:17:26;14.32;;;4.03;;
64938;SDS011;51453;47.738;7.420;2023-02-01T12:25:30;11.95;;;3.25;;
64938;SDS011;51453;47.738;7.420;2023-02-01T12:28:39;14.75;;;3.78;;
64938;SDS011;51453;47.738;7.420;2023-02-01T12:36:36;14.23;;;3.40;;
64938;SDS011;51453;47.738;7.420;2023-02-01T12:39:26;12.25;;;3.53;;
64938;SDS011;51453;47.738;7.420;2023-02-01T12:42:07;12.43;;;3.08;;
64938;SDS011;51453;47.738;7.420;2023-02-01T12:50:21;14.40;;;3.15;;
64938;SDS011;51453;47.738;7.420;2023-02-01T12:52:51;10.30;;;3.08;;
64938;SDS011;51453;47.738;7.420;2023-02-01T12:55:27;10.77;;;2.90;;
64938;SDS011;51453;47.738;7.420;2023-02-01T12:58:12;12.00;;;3.17;;
64938;SDS011;51453;47.738;7.420;2023-02-01T13:03:41;11.07;;;2.90;;
64938;SDS011;51453;47.738;7.420;2023-02-01T13:06:18;14.70;;;3.22;;
64938;SDS011;51453;47.738;7.420;2023-02-01T13:11:33;11.90;;;2.97;;
64938;SDS011;51453;47.738;7.420;2023-02-01T13:16:43;12.13;;;3.53;;
64938;SDS011;51453;47.738;7.420;2023-02-01T13:22:07;13.68;;;3.28;;
64938;SDS011;51453;47.738;7.420;2023-02-01T13:24:44;12.80;;;3.72;;
64938;SDS011;51453;47.738;7.420;2023-02-01T13:27:31;14.43;;;4.03;;
64938;SDS011;51453;47.738;7.420;2023-02-01T13:38:14;17.92;;;4.00;;
64938;SDS011;51453;47.738;7.420;2023-02-01T13:40:44;22.70;;;4.32;;
64938;SDS011;51453;47.738;7.420;2023-02-01T13:43:26;12.13;;;3.60;;
64938;SDS011;51453;47.738;7.420;2023-02-01T13:45:55;18.63;;;3.67;;
64938;SDS011;51453;47.738;7.420;2023-02-01T13:51:14;16.92;;;3.70;;
64938;SDS011;51453;47.738;7.420;2023-02-01T13:53:48;17.02;;;3.42;;
64938;SDS011;51453;47.738;7.420;2023-02-01T13:56:18;19.05;;;4.30;;
64938;SDS011;51453;47.738;7.420;2023-02-01T13:58:46;11.32;;;3.22;;
64938;SDS011;51453;47.738;7.420;2023-02-01T14:03:54;12.95;;;3.40;;
64938;SDS011;51453;47.738;7.420;2023-02-01T14:11:48;14.82;;;3.90;;
64938;SDS011;51453;47.738;7.420;2023-02-01T14:17:30;16.27;;;3.20;;
64938;SDS011;51453;47.738;7.420;2023-02-01T14:19:28;14.55;;;3.13;;
64938;SDS011;51453;47.738;7.420;2023-02-01T14:22:00;14.88;;;3.00;;
64938;SDS011;51453;47.738;7.420;2023-02-01T14:24:49;11.63;;;3.00;;
64938;SDS011;51453;47.738;7.420;2023-02-01T14:27:20;13.13;;;3.08;;
64938;SDS011;51453;47.738;7.420;2023-02-01T14:30:07;15.95;;;4.50;;
64938;SDS011;51453;47.738;7.420;2023-02-01T14:32:40;15.25;;;3.65;;
64938;SDS011;51453;47.738;7.420;2023-02-01T14:35:18;10.00;;;3.13;;
64938;SDS011;51453;47.738;7.420;2023-02-01T14:37:52;16.90;;;3.15;;
64938;SDS011;51453;47.738;7.420;2023-02-01T14:40:25;16.30;;;3.20;;
64938;SDS011;51453;47.738;7.420;2023-02-01T14:42:52;19.38;;;3.03;;
64938;SDS011;51453;47.738;7.420;2023-02-01T14:47:51;13.85;;;3.20;;
64938;SDS011;51453;47.738;7.420;2023-02-01T14:50:40;12.25;;;2.92;;
64938;SDS011;51453;47.738;7.420;2023-02-01T15:01:02;13.63;;;3.47;;
64938;SDS011;51453;47.738;7.420;2023-02-01T15:05:59;17.10;;;5.03;;
64938;SDS011;51453;47.738;7.420;2023-02-01T15:08:31;16.80;;;3.50;;
64938;SDS011;51453;47.738;7.420;2023-02-01T15:11:01;15.00;;;4.80;;
64938;SDS011;51453;47.738;7.420;2023-02-01T15:16:05;11.95;;;2.85;;
64938;SDS011;51453;47.738;7.420;2023-02-01T15:18:35;14.43;;;3.08;;
64938;SDS011;51453;47.738;7.420;2023-02-01T15:21:02;13.82;;;3.55;;
64938;SDS011;51453;47.738;7.420;2023-02-01T15:23:29;18.58;;;3.40;;
64938;SDS011;51453;47.738;7.420;2023-02-01T15:25:55;17.27;;;3.58;;
64938;SDS011;51453;47.738;7.420;2023-02-01T15:28:20;13.05;;;3.75;;
64938;SDS011;51453;47.738;7.420;2023-02-01T15:30:57;15.02;;;2.90;;
64938;SDS011;51453;47.738;7.420;2023-02-01T15:33:31;11.80;;;3.08;;
64938;SDS011;51453;47.738;7.420;2023-02-01T15:43:38;9.88;;;2.92;;
64938;SDS011;51453;47.738;7.420;2023-02-01T15:46:08;15.52;;;3.47;;
64938;SDS011;51453;47.738;7.420;2023-02-01T15:51:56;17.52;;;4.35;;
64938;SDS011;51453;47.738;7.420;2023-02-01T15:54:38;17.95;;;5.85;;
64938;SDS011;51453;47.738;7.420;2023-02-01T15:57:10;11.95;;;3.50;;
64938;SDS011;51453;47.738;7.420;2023-02-01T15:59:41;16.63;;;3.10;;
64938;SDS011;51453;47.738;7.420;2023-02-01T16:04:57;16.65;;;6.40;;
64938;SDS011;51453;47.738;7.420;2023-02-01T16:07:30;15.77;;;3.22;;
64938;SDS011;51453;47.738;7.420;2023-02-01T16:09:58;12.25;;;3.45;;
64938;SDS011;51453;47.738;7.420;2023-02-01T16:15:03;15.10;;;3.38;;
64938;SDS011;51453;47.738;7.420;2023-02-01T16:17:30;12.57;;;2.80;;
64938;SDS011;51453;47.738;7.420;2023-02-01T16:19:56;11.73;;;3.13;;
64938;SDS011;51453;47.738;7.420;2023-02-01T16:22:22;18.52;;;3.55;;
64938;SDS011;51453;47.738;7.420;2023-02-01T16:24:48;15.80;;;3.55;;
64938;SDS011;51453;47.738;7.420;2023-02-01T16:27:14;10.88;;;3.33;;
64938;SDS011;51453;47.738;7.420;2023-02-01T16:29:40;12.23;;;3.20;;
64938;SDS011;51453;47.738;7.420;2023-02-01T16:32:06;16.33;;;3.58;;
64938;SDS011;51453;47.738;7.420;2023-02-01T16:34:38;12.23;;;3.13;;
64938;SDS011;51453;47.738;7.420;2023-02-01T16:37:05;17.42;;;3.53;;
64938;SDS011;51453;47.738;7.420;2023-02-01T16:39:34;19.58;;;3.70;;
64938;SDS011;51453;47.738;7.420;2023-02-01T16:42:00;14.30;;;3.63;;
64938;SDS011;51453;47.738;7.420;2023-02-01T16:44:30;15.13;;;3.87;;
64938;SDS011;51453;47.738;7.420;2023-02-01T16:46:55;18.80;;;3.85;;
64938;SDS011;51453;47.738;7.420;2023-02-01T16:49:24;12.43;;;4.07;;
64938;SDS011;51453;47.738;7.420;2023-02-01T16:51:51;22.70;;;4.97;;
64938;SDS011;51453;47.738;7.420;2023-02-01T16:54:21;21.40;;;4.45;;
64938;SDS011;51453;47.738;7.420;2023-02-01T16:56:46;21.70;;;4.20;;
64938;SDS011;51453;47.738;7.420;2023-02-01T16:59:12;14.75;;;4.60;;
64938;SDS011;51453;47.738;7.420;2023-02-01T17:01:39;21.17;;;4.10;;
64938;SDS011;51453;47.738;7.420;2023-02-01T17:04:07;17.98;;;3.47;;
64938;SDS011;51453;47.738;7.420;2023-02-01T17:06:34;19.65;;;3.97;;
64938;SDS011;51453;47.738;7.420;2023-02-01T17:09:01;21.02;;;3.83;;
64938;SDS011;51453;47.738;7.420;2023-02-01T17:11:28;17.55;;;5.95;;
64938;SDS011;51453;47.738;7.420;2023-02-01T17:14:16;15.65;;;4.03;;
64938;SDS011;51453;47.738;7.420;2023-02-01T17:16:43;14.23;;;3.50;;
64938;SDS011;51453;47.738;7.420;2023-02-01T17:19:12;16.48;;;4.68;;
64938;SDS011;51453;47.738;7.420;2023-02-01T17:21:46;13.48;;;3.55;;
64938;SDS011;51453;47.738;7.420;2023-02-01T17:24:19;19.20;;;4.65;;
64938;SDS011;51453;47.738;7.420;2023-02-01T17:26:50;14.63;;;3.75;;
64938;SDS011;51453;47.738;7.420;2023-02-01T17:29:16;14.32;;;3.47;;
64938;SDS011;51453;47.738;7.420;2023-02-01T17:31:43;13.63;;;3.45;;
64938;SDS011;51453;47.738;7.420;2023-02-01T17:34:13;12.73;;;4.00;;
64938;SDS011;51453;47.738;7.420;2023-02-01T17:36:40;14.43;;;4.00;;
64938;SDS011;51453;47.738;7.420;2023-02-01T17:39:06;18.58;;;4.00;;
64938;SDS011;51453;47.738;7.420;2023-02-01T17:41:33;20.02;;;4.32;;
64938;SDS011;51453;47.738;7.420;2023-02-01T17:44:00;12.98;;;4.22;;
64938;SDS011;51453;47.738;7.420;2023-02-01T17:46:26;27.02;;;4.35;;